Springdale, Arkansas
Current Conditions -  °F | °C
As of 5:48 PM on Wednesday 22 Oct 2014 (Local Time) from KASG Reporting Station
Broken Clouds Broken Clouds  
Wind Chill: 72°   Ceiling: 5000
Heat Index: 72°   Visibility: 10mi
Dew Point: 55°   Wind: 6mph
Humidity: 57%   Direction: 110°ESE
Pressure: 30.15"   Gusts: NA
Location:  36.19°N, 94.13°W
Report Text: KASG 222248Z 11005KT 10SM BKN050 22/13 A3015
Loading
Personal Weather Stations






























Interactive Weather Map
Tropical Storm Tracking
New forecast layout! Learn more

10-Day Weather Forecast

Advertisements
Track Severe Weather on mobile